sensor_id;sensor_type;location;lat;lon;timestamp;P1;durP1;ratioP1;P2;durP2;ratioP2
57331;SDS011;43164;50.908;18.092;2023-08-06T00:01:21;5.90;;;1.90;;
57331;SDS011;43164;50.908;18.092;2023-08-06T00:03:51;6.40;;;2.30;;
57331;SDS011;43164;50.908;18.092;2023-08-06T00:06:20;5.80;;;1.70;;
57331;SDS011;43164;50.908;18.092;2023-08-06T00:08:50;3.50;;;1.60;;
57331;SDS011;43164;50.908;18.092;2023-08-06T00:11:20;4.40;;;1.70;;
57331;SDS011;43164;50.908;18.092;2023-08-06T00:13:51;4.40;;;1.90;;
57331;SDS011;43164;50.908;18.092;2023-08-06T00:16:20;6.00;;;2.30;;
57331;SDS011;43164;50.908;18.092;2023-08-06T00:18:55;4.70;;;2.50;;
57331;SDS011;43164;50.908;18.092;2023-08-06T00:21:24;5.00;;;2.60;;
57331;SDS011;43164;50.908;18.092;2023-08-06T00:23:52;4.20;;;1.80;;
57331;SDS011;43164;50.908;18.092;2023-08-06T00:26:25;5.40;;;2.50;;
57331;SDS011;43164;50.908;18.092;2023-08-06T00:28:55;7.00;;;2.70;;
57331;SDS011;43164;50.908;18.092;2023-08-06T00:31:25;4.20;;;2.30;;
57331;SDS011;43164;50.908;18.092;2023-08-06T00:33:59;6.70;;;2.50;;
57331;SDS011;43164;50.908;18.092;2023-08-06T00:36:29;6.70;;;3.20;;
57331;SDS011;43164;50.908;18.092;2023-08-06T00:39:02;5.30;;;2.70;;
57331;SDS011;43164;50.908;18.092;2023-08-06T00:41:34;7.30;;;2.50;;
57331;SDS011;43164;50.908;18.092;2023-08-06T00:44:03;4.90;;;2.30;;
57331;SDS011;43164;50.908;18.092;2023-08-06T00:46:39;5.20;;;2.80;;
57331;SDS011;43164;50.908;18.092;2023-08-06T00:49:09;6.10;;;2.40;;
57331;SDS011;43164;50.908;18.092;2023-08-06T00:51:53;7.80;;;2.80;;
57331;SDS011;43164;50.908;18.092;2023-08-06T00:54:26;6.10;;;3.40;;
57331;SDS011;43164;50.908;18.092;2023-08-06T00:57:17;7.00;;;2.90;;
57331;SDS011;43164;50.908;18.092;2023-08-06T00:59:49;7.10;;;3.70;;
57331;SDS011;43164;50.908;18.092;2023-08-06T01:02:22;8.40;;;4.30;;
57331;SDS011;43164;50.908;18.092;2023-08-06T01:04:52;6.30;;;3.60;;
57331;SDS011;43164;50.908;18.092;2023-08-06T01:10:26;7.70;;;4.40;;
57331;SDS011;43164;50.908;18.092;2023-08-06T01:13:16;6.10;;;3.40;;
57331;SDS011;43164;50.908;18.092;2023-08-06T01:16:00;9.20;;;4.20;;
57331;SDS011;43164;50.908;18.092;2023-08-06T01:18:31;7.30;;;3.90;;
57331;SDS011;43164;50.908;18.092;2023-08-06T01:21:06;7.50;;;4.40;;
57331;SDS011;43164;50.908;18.092;2023-08-06T01:23:36;8.60;;;4.20;;
57331;SDS011;43164;50.908;18.092;2023-08-06T01:31:52;9.20;;;4.30;;
57331;SDS011;43164;50.908;18.092;2023-08-06T01:34:25;11.10;;;4.20;;
57331;SDS011;43164;50.908;18.092;2023-08-06T01:37:03;9.00;;;4.60;;
57331;SDS011;43164;50.908;18.092;2023-08-06T01:39:36;8.60;;;5.10;;
57331;SDS011;43164;50.908;18.092;2023-08-06T01:42:09;11.50;;;5.20;;
57331;SDS011;43164;50.908;18.092;2023-08-06T01:44:39;13.20;;;5.90;;
57331;SDS011;43164;50.908;18.092;2023-08-06T01:47:14;10.00;;;5.50;;
57331;SDS011;43164;50.908;18.092;2023-08-06T01:49:42;9.90;;;5.60;;
57331;SDS011;43164;50.908;18.092;2023-08-06T01:52:15;12.30;;;6.20;;
57331;SDS011;43164;50.908;18.092;2023-08-06T01:54:43;11.30;;;5.90;;
57331;SDS011;43164;50.908;18.092;2023-08-06T01:57:16;11.10;;;5.60;;
57331;SDS011;43164;50.908;18.092;2023-08-06T01:59:45;12.90;;;5.80;;
57331;SDS011;43164;50.908;18.092;2023-08-06T02:02:12;13.20;;;7.00;;
57331;SDS011;43164;50.908;18.092;2023-08-06T02:04:44;13.50;;;6.40;;
57331;SDS011;43164;50.908;18.092;2023-08-06T02:07:17;15.20;;;7.10;;
57331;SDS011;43164;50.908;18.092;2023-08-06T02:09:46;14.10;;;6.70;;
57331;SDS011;43164;50.908;18.092;2023-08-06T02:12:15;15.50;;;6.90;;
57331;SDS011;43164;50.908;18.092;2023-08-06T02:14:45;16.40;;;6.70;;
57331;SDS011;43164;50.908;18.092;2023-08-06T02:17:20;26.20;;;7.70;;
57331;SDS011;43164;50.908;18.092;2023-08-06T02:19:53;15.50;;;7.30;;
57331;SDS011;43164;50.908;18.092;2023-08-06T02:22:21;14.70;;;7.50;;
57331;SDS011;43164;50.908;18.092;2023-08-06T02:24:50;19.70;;;7.80;;
57331;SDS011;43164;50.908;18.092;2023-08-06T02:27:18;14.50;;;6.30;;
57331;SDS011;43164;50.908;18.092;2023-08-06T02:29:47;22.50;;;6.80;;
57331;SDS011;43164;50.908;18.092;2023-08-06T02:32:24;18.00;;;7.90;;
57331;SDS011;43164;50.908;18.092;2023-08-06T02:34:52;15.30;;;7.60;;
57331;SDS011;43164;50.908;18.092;2023-08-06T02:37:21;20.50;;;7.20;;
57331;SDS011;43164;50.908;18.092;2023-08-06T02:39:51;22.80;;;7.90;;
57331;SDS011;43164;50.908;18.092;2023-08-06T02:42:26;22.50;;;7.40;;
57331;SDS011;43164;50.908;18.092;2023-08-06T02:44:55;18.90;;;7.50;;
57331;SDS011;43164;50.908;18.092;2023-08-06T02:47:24;17.90;;;7.90;;
57331;SDS011;43164;50.908;18.092;2023-08-06T02:49:53;22.90;;;8.80;;
57331;SDS011;43164;50.908;18.092;2023-08-06T02:52:27;17.80;;;7.90;;
57331;SDS011;43164;50.908;18.092;2023-08-06T02:54:57;18.70;;;8.60;;
57331;SDS011;43164;50.908;18.092;2023-08-06T02:57:34;26.30;;;8.50;;
57331;SDS011;43164;50.908;18.092;2023-08-06T03:00:05;28.00;;;9.30;;
57331;SDS011;43164;50.908;18.092;2023-08-06T03:02:41;23.80;;;9.40;;
57331;SDS011;43164;50.908;18.092;2023-08-06T03:05:09;29.80;;;9.50;;
57331;SDS011;43164;50.908;18.092;2023-08-06T03:07:46;24.80;;;10.30;;
57331;SDS011;43164;50.908;18.092;2023-08-06T03:10:15;30.10;;;10.90;;
57331;SDS011;43164;50.908;18.092;2023-08-06T03:12:49;22.20;;;10.50;;
57331;SDS011;43164;50.908;18.092;2023-08-06T03:15:18;21.10;;;10.40;;
57331;SDS011;43164;50.908;18.092;2023-08-06T03:17:55;31.10;;;11.40;;
57331;SDS011;43164;50.908;18.092;2023-08-06T03:20:26;29.50;;;11.20;;
57331;SDS011;43164;50.908;18.092;2023-08-06T03:23:01;26.00;;;11.00;;
57331;SDS011;43164;50.908;18.092;2023-08-06T03:25:31;27.00;;;11.20;;
57331;SDS011;43164;50.908;18.092;2023-08-06T03:28:07;26.70;;;10.90;;
57331;SDS011;43164;50.908;18.092;2023-08-06T03:30:36;24.80;;;10.80;;
57331;SDS011;43164;50.908;18.092;2023-08-06T03:33:11;26.10;;;11.40;;
57331;SDS011;43164;50.908;18.092;2023-08-06T03:35:44;21.80;;;10.50;;
57331;SDS011;43164;50.908;18.092;2023-08-06T03:38:21;21.50;;;10.80;;
57331;SDS011;43164;50.908;18.092;2023-08-06T03:41:10;24.30;;;11.40;;
57331;SDS011;43164;50.908;18.092;2023-08-06T03:43:45;21.20;;;11.10;;
57331;SDS011;43164;50.908;18.092;2023-08-06T03:46:15;20.40;;;10.80;;
57331;SDS011;43164;50.908;18.092;2023-08-06T03:48:48;22.20;;;10.70;;
57331;SDS011;43164;50.908;18.092;2023-08-06T03:51:18;18.70;;;10.80;;
57331;SDS011;43164;50.908;18.092;2023-08-06T03:53:53;18.60;;;9.90;;
57331;SDS011;43164;50.908;18.092;2023-08-06T03:56:21;16.50;;;8.90;;
57331;SDS011;43164;50.908;18.092;2023-08-06T03:58:57;16.40;;;8.80;;
57331;SDS011;43164;50.908;18.092;2023-08-06T04:01:26;12.70;;;7.90;;
57331;SDS011;43164;50.908;18.092;2023-08-06T04:03:56;13.70;;;7.90;;
57331;SDS011;43164;50.908;18.092;2023-08-06T04:06:27;12.30;;;7.90;;
57331;SDS011;43164;50.908;18.092;2023-08-06T04:09:03;11.90;;;7.80;;
57331;SDS011;43164;50.908;18.092;2023-08-06T04:11:33;12.60;;;7.10;;
57331;SDS011;43164;50.908;18.092;2023-08-06T04:14:09;10.30;;;6.40;;
57331;SDS011;43164;50.908;18.092;2023-08-06T04:16:38;11.20;;;6.60;;
57331;SDS011;43164;50.908;18.092;2023-08-06T04:19:12;10.90;;;6.80;;
57331;SDS011;43164;50.908;18.092;2023-08-06T04:21:42;11.20;;;6.30;;
57331;SDS011;43164;50.908;18.092;2023-08-06T04:24:17;9.30;;;5.70;;
57331;SDS011;43164;50.908;18.092;2023-08-06T04:26:47;8.90;;;5.20;;
57331;SDS011;43164;50.908;18.092;2023-08-06T04:29:21;8.30;;;5.20;;
57331;SDS011;43164;50.908;18.092;2023-08-06T04:31:52;8.00;;;4.70;;
57331;SDS011;43164;50.908;18.092;2023-08-06T04:34:26;7.80;;;4.50;;
57331;SDS011;43164;50.908;18.092;2023-08-06T04:36:58;7.70;;;4.30;;
57331;SDS011;43164;50.908;18.092;2023-08-06T04:39:33;7.60;;;4.30;;
57331;SDS011;43164;50.908;18.092;2023-08-06T04:42:03;7.90;;;4.30;;
57331;SDS011;43164;50.908;18.092;2023-08-06T04:44:39;7.60;;;3.90;;
57331;SDS011;43164;50.908;18.092;2023-08-06T04:47:11;7.00;;;3.60;;
57331;SDS011;43164;50.908;18.092;2023-08-06T04:49:52;6.30;;;3.00;;
57331;SDS011;43164;50.908;18.092;2023-08-06T04:52:23;4.60;;;2.90;;
57331;SDS011;43164;50.908;18.092;2023-08-06T04:55:03;5.70;;;3.00;;
57331;SDS011;43164;50.908;18.092;2023-08-06T04:57:36;4.70;;;2.50;;
57331;SDS011;43164;50.908;18.092;2023-08-06T05:00:13;4.80;;;2.50;;
57331;SDS011;43164;50.908;18.092;2023-08-06T05:02:44;4.50;;;2.50;;
57331;SDS011;43164;50.908;18.092;2023-08-06T05:05:24;4.60;;;2.50;;
57331;SDS011;43164;50.908;18.092;2023-08-06T05:07:54;4.30;;;1.90;;
57331;SDS011;43164;50.908;18.092;2023-08-06T05:10:30;4.00;;;2.00;;
57331;SDS011;43164;50.908;18.092;2023-08-06T05:13:00;2.90;;;1.60;;
57331;SDS011;43164;50.908;18.092;2023-08-06T05:15:30;3.40;;;1.60;;
57331;SDS011;43164;50.908;18.092;2023-08-06T05:18:00;2.90;;;1.50;;
57331;SDS011;43164;50.908;18.092;2023-08-06T05:20:37;3.00;;;1.30;;
57331;SDS011;43164;50.908;18.092;2023-08-06T05:23:11;2.00;;;1.00;;
57331;SDS011;43164;50.908;18.092;2023-08-06T05:25:46;2.10;;;1.10;;
57331;SDS011;43164;50.908;18.092;2023-08-06T05:28:16;3.70;;;1.20;;
57331;SDS011;43164;50.908;18.092;2023-08-06T05:30:53;2.20;;;1.00;;
57331;SDS011;43164;50.908;18.092;2023-08-06T05:33:22;3.40;;;0.90;;
57331;SDS011;43164;50.908;18.092;2023-08-06T05:35:51;1.60;;;0.70;;
57331;SDS011;43164;50.908;18.092;2023-08-06T05:38:21;1.80;;;0.70;;
57331;SDS011;43164;50.908;18.092;2023-08-06T05:40:51;1.30;;;0.60;;
57331;SDS011;43164;50.908;18.092;2023-08-06T05:43:21;1.50;;;0.70;;
57331;SDS011;43164;50.908;18.092;2023-08-06T05:45:56;1.90;;;0.60;;
57331;SDS011;43164;50.908;18.092;2023-08-06T05:48:31;5.20;;;0.60;;
57331;SDS011;43164;50.908;18.092;2023-08-06T05:51:12;1.40;;;0.40;;
57331;SDS011;43164;50.908;18.092;2023-08-06T05:53:47;1.20;;;0.40;;
57331;SDS011;43164;50.908;18.092;2023-08-06T05:56:20;2.20;;;0.40;;
57331;SDS011;43164;50.908;18.092;2023-08-06T05:58:49;0.90;;;0.30;;
57331;SDS011;43164;50.908;18.092;2023-08-06T06:01:20;1.40;;;0.20;;
57331;SDS011;43164;50.908;18.092;2023-08-06T06:03:51;1.30;;;0.20;;
57331;SDS011;43164;50.908;18.092;2023-08-06T06:06:26;1.70;;;0.30;;
57331;SDS011;43164;50.908;18.092;2023-08-06T06:08:55;2.70;;;0.60;;
57331;SDS011;43164;50.908;18.092;2023-08-06T06:11:26;2.40;;;0.30;;
57331;SDS011;43164;50.908;18.092;2023-08-06T06:14:00;0.30;;;0.20;;
57331;SDS011;43164;50.908;18.092;2023-08-06T06:16:30;1.00;;;0.20;;
57331;SDS011;43164;50.908;18.092;2023-08-06T06:19:06;2.00;;;0.20;;
57331;SDS011;43164;50.908;18.092;2023-08-06T06:21:37;3.40;;;0.20;;
57331;SDS011;43164;50.908;18.092;2023-08-06T06:24:08;0.70;;;0.10;;
57331;SDS011;43164;50.908;18.092;2023-08-06T06:26:42;1.20;;;0.20;;
57331;SDS011;43164;50.908;18.092;2023-08-06T06:29:14;1.60;;;0.40;;
57331;SDS011;43164;50.908;18.092;2023-08-06T06:31:55;0.70;;;0.30;;
57331;SDS011;43164;50.908;18.092;2023-08-06T06:34:32;0.60;;;0.10;;
57331;SDS011;43164;50.908;18.092;2023-08-06T06:37:06;1.90;;;0.10;;
57331;SDS011;43164;50.908;18.092;2023-08-06T06:39:41;0.50;;;0.00;;
57331;SDS011;43164;50.908;18.092;2023-08-06T06:42:10;1.30;;;0.10;;
57331;SDS011;43164;50.908;18.092;2023-08-06T06:44:44;0.20;;;0.10;;
57331;SDS011;43164;50.908;18.092;2023-08-06T06:47:17;1.30;;;0.10;;
57331;SDS011;43164;50.908;18.092;2023-08-06T06:50:12;1.20;;;0.20;;
57331;SDS011;43164;50.908;18.092;2023-08-06T06:52:41;0.10;;;0.00;;
57331;SDS011;43164;50.908;18.092;2023-08-06T06:55:20;1.90;;;0.00;;
57331;SDS011;43164;50.908;18.092;2023-08-06T06:57:52;3.60;;;0.10;;
57331;SDS011;43164;50.908;18.092;2023-08-06T07:00:28;0.50;;;0.10;;
57331;SDS011;43164;50.908;18.092;2023-08-06T07:02:58;1.50;;;0.10;;
57331;SDS011;43164;50.908;18.092;2023-08-06T07:05:34;1.60;;;0.10;;
57331;SDS011;43164;50.908;18.092;2023-08-06T07:08:04;0.10;;;0.00;;
57331;SDS011;43164;50.908;18.092;2023-08-06T07:10:40;0.20;;;0.10;;
57331;SDS011;43164;50.908;18.092;2023-08-06T07:13:11;0.90;;;0.00;;
57331;SDS011;43164;50.908;18.092;2023-08-06T07:15:45;6.00;;;0.10;;
57331;SDS011;43164;50.908;18.092;2023-08-06T07:18:19;0.10;;;0.00;;
57331;SDS011;43164;50.908;18.092;2023-08-06T07:20:55;0.40;;;0.10;;
57331;SDS011;43164;50.908;18.092;2023-08-06T07:23:25;0.60;;;0.00;;
57331;SDS011;43164;50.908;18.092;2023-08-06T07:26:22;2.60;;;0.10;;
57331;SDS011;43164;50.908;18.092;2023-08-06T07:28:56;0.80;;;0.10;;
57331;SDS011;43164;50.908;18.092;2023-08-06T07:31:31;0.50;;;0.00;;
57331;SDS011;43164;50.908;18.092;2023-08-06T07:34:02;1.70;;;0.20;;
57331;SDS011;43164;50.908;18.092;2023-08-06T07:36:36;0.40;;;0.10;;
57331;SDS011;43164;50.908;18.092;2023-08-06T07:39:08;0.40;;;0.10;;
57331;SDS011;43164;50.908;18.092;2023-08-06T07:41:43;3.90;;;0.10;;
57331;SDS011;43164;50.908;18.092;2023-08-06T07:44:25;0.90;;;0.00;;
57331;SDS011;43164;50.908;18.092;2023-08-06T07:47:09;0.00;;;0.00;;
57331;SDS011;43164;50.908;18.092;2023-08-06T07:49:42;1.40;;;0.10;;
57331;SDS011;43164;50.908;18.092;2023-08-06T07:52:17;0.30;;;0.00;;
57331;SDS011;43164;50.908;18.092;2023-08-06T07:54:46;0.30;;;0.10;;
57331;SDS011;43164;50.908;18.092;2023-08-06T07:57:19;0.80;;;0.00;;
57331;SDS011;43164;50.908;18.092;2023-08-06T07:59:48;0.70;;;0.00;;
57331;SDS011;43164;50.908;18.092;2023-08-06T08:02:16;0.00;;;0.00;;
57331;SDS011;43164;50.908;18.092;2023-08-06T08:04:47;1.30;;;0.00;;
57331;SDS011;43164;50.908;18.092;2023-08-06T08:07:30;1.20;;;0.10;;
57331;SDS011;43164;50.908;18.092;2023-08-06T08:10:00;0.20;;;0.00;;
57331;SDS011;43164;50.908;18.092;2023-08-06T08:12:29;1.80;;;0.40;;
57331;SDS011;43164;50.908;18.092;2023-08-06T08:14:58;1.00;;;0.10;;
57331;SDS011;43164;50.908;18.092;2023-08-06T08:17:27;0.10;;;0.00;;
57331;SDS011;43164;50.908;18.092;2023-08-06T08:19:58;0.30;;;0.10;;
57331;SDS011;43164;50.908;18.092;2023-08-06T08:22:32;0.10;;;0.00;;
57331;SDS011;43164;50.908;18.092;2023-08-06T08:25:01;0.40;;;0.00;;
57331;SDS011;43164;50.908;18.092;2023-08-06T08:27:35;0.50;;;0.20;;
57331;SDS011;43164;50.908;18.092;2023-08-06T08:30:03;0.20;;;0.00;;
57331;SDS011;43164;50.908;18.092;2023-08-06T08:32:32;0.10;;;0.00;;
57331;SDS011;43164;50.908;18.092;2023-08-06T08:35:00;0.10;;;0.00;;
57331;SDS011;43164;50.908;18.092;2023-08-06T08:37:34;0.30;;;0.00;;
57331;SDS011;43164;50.908;18.092;2023-08-06T08:40:06;1.80;;;0.20;;
57331;SDS011;43164;50.908;18.092;2023-08-06T08:42:41;0.30;;;0.00;;
57331;SDS011;43164;50.908;18.092;2023-08-06T08:45:12;0.20;;;0.00;;
57331;SDS011;43164;50.908;18.092;2023-08-06T08:47:48;0.70;;;0.10;;
57331;SDS011;43164;50.908;18.092;2023-08-06T08:50:17;0.10;;;0.00;;
57331;SDS011;43164;50.908;18.092;2023-08-06T08:52:49;0.30;;;0.10;;
57331;SDS011;43164;50.908;18.092;2023-08-06T08:55:26;2.10;;;0.10;;
57331;SDS011;43164;50.908;18.092;2023-08-06T08:57:58;1.70;;;0.00;;
57331;SDS011;43164;50.908;18.092;2023-08-06T09:00:44;1.60;;;0.00;;
57331;SDS011;43164;50.908;18.092;2023-08-06T09:03:32;0.60;;;0.20;;
57331;SDS011;43164;50.908;18.092;2023-08-06T09:06:12;0.20;;;0.00;;
57331;SDS011;43164;50.908;18.092;2023-08-06T09:08:44;1.80;;;0.10;;
57331;SDS011;43164;50.908;18.092;2023-08-06T09:11:39;2.00;;;0.10;;
57331;SDS011;43164;50.908;18.092;2023-08-06T09:14:16;1.00;;;0.10;;
57331;SDS011;43164;50.908;18.092;2023-08-06T09:17:08;3.50;;;0.10;;
57331;SDS011;43164;50.908;18.092;2023-08-06T09:19:51;0.20;;;0.10;;
57331;SDS011;43164;50.908;18.092;2023-08-06T09:22:33;1.00;;;0.10;;
57331;SDS011;43164;50.908;18.092;2023-08-06T09:25:21;0.20;;;0.10;;
57331;SDS011;43164;50.908;18.092;2023-08-06T09:27:52;2.60;;;0.10;;
57331;SDS011;43164;50.908;18.092;2023-08-06T09:30:30;1.00;;;0.10;;
57331;SDS011;43164;50.908;18.092;2023-08-06T09:33:10;0.30;;;0.10;;
57331;SDS011;43164;50.908;18.092;2023-08-06T09:35:49;2.40;;;0.30;;
57331;SDS011;43164;50.908;18.092;2023-08-06T09:38:21;1.60;;;0.30;;
57331;SDS011;43164;50.908;18.092;2023-08-06T09:40:57;3.10;;;0.10;;
57331;SDS011;43164;50.908;18.092;2023-08-06T09:43:41;0.90;;;0.10;;
57331;SDS011;43164;50.908;18.092;2023-08-06T09:46:17;0.20;;;0.10;;
57331;SDS011;43164;50.908;18.092;2023-08-06T09:51:24;0.70;;;0.00;;
57331;SDS011;43164;50.908;18.092;2023-08-06T09:54:00;0.50;;;0.10;;
57331;SDS011;43164;50.908;18.092;2023-08-06T09:56:50;0.10;;;0.00;;
57331;SDS011;43164;50.908;18.092;2023-08-06T10:03:24;3.20;;;0.30;;
57331;SDS011;43164;50.908;18.092;2023-08-06T10:06:00;0.90;;;0.20;;
57331;SDS011;43164;50.908;18.092;2023-08-06T10:08:36;1.60;;;0.10;;
57331;SDS011;43164;50.908;18.092;2023-08-06T10:11:06;0.50;;;0.00;;
57331;SDS011;43164;50.908;18.092;2023-08-06T10:13:38;1.70;;;0.10;;
57331;SDS011;43164;50.908;18.092;2023-08-06T10:16:10;0.20;;;0.10;;
57331;SDS011;43164;50.908;18.092;2023-08-06T10:18:46;0.30;;;0.10;;
57331;SDS011;43164;50.908;18.092;2023-08-06T10:21:18;0.10;;;0.00;;
57331;SDS011;43164;50.908;18.092;2023-08-06T10:24:02;1.20;;;0.00;;
57331;SDS011;43164;50.908;18.092;2023-08-06T10:26:33;0.80;;;0.00;;
57331;SDS011;43164;50.908;18.092;2023-08-06T10:32:12;0.40;;;0.00;;
57331;SDS011;43164;50.908;18.092;2023-08-06T10:38:27;0.80;;;0.00;;
57331;SDS011;43164;50.908;18.092;2023-08-06T10:41:09;0.20;;;0.10;;
57331;SDS011;43164;50.908;18.092;2023-08-06T10:44:13;0.30;;;0.00;;
57331;SDS011;43164;50.908;18.092;2023-08-06T10:46:56;0.70;;;0.10;;
57331;SDS011;43164;50.908;18.092;2023-08-06T10:49:33;0.20;;;0.10;;
57331;SDS011;43164;50.908;18.092;2023-08-06T10:52:12;0.20;;;0.00;;
57331;SDS011;43164;50.908;18.092;2023-08-06T10:54:42;0.10;;;0.00;;
57331;SDS011;43164;50.908;18.092;2023-08-06T10:57:28;0.40;;;0.00;;
57331;SDS011;43164;50.908;18.092;2023-08-06T11:00:05;0.50;;;0.10;;
57331;SDS011;43164;50.908;18.092;2023-08-06T11:02:46;2.00;;;0.10;;
57331;SDS011;43164;50.908;18.092;2023-08-06T11:05:27;1.20;;;0.10;;
57331;SDS011;43164;50.908;18.092;2023-08-06T11:07:57;0.30;;;0.20;;
57331;SDS011;43164;50.908;18.092;2023-08-06T11:10:33;0.40;;;0.10;;
57331;SDS011;43164;50.908;18.092;2023-08-06T11:13:04;0.60;;;0.10;;
57331;SDS011;43164;50.908;18.092;2023-08-06T11:15:35;0.60;;;0.10;;
57331;SDS011;43164;50.908;18.092;2023-08-06T11:18:06;0.80;;;0.10;;
57331;SDS011;43164;50.908;18.092;2023-08-06T11:20:40;0.40;;;0.10;;
57331;SDS011;43164;50.908;18.092;2023-08-06T11:23:13;0.50;;;0.10;;
57331;SDS011;43164;50.908;18.092;2023-08-06T11:25:46;0.20;;;0.10;;
57331;SDS011;43164;50.908;18.092;2023-08-06T11:28:29;0.40;;;0.10;;
57331;SDS011;43164;50.908;18.092;2023-08-06T11:30:58;0.90;;;0.10;;
57331;SDS011;43164;50.908;18.092;2023-08-06T11:33:29;0.40;;;0.20;;
57331;SDS011;43164;50.908;18.092;2023-08-06T11:35:58;0.40;;;0.20;;
57331;SDS011;43164;50.908;18.092;2023-08-06T11:38:45;0.20;;;0.10;;
57331;SDS011;43164;50.908;18.092;2023-08-06T11:41:15;1.00;;;0.10;;
57331;SDS011;43164;50.908;18.092;2023-08-06T11:43:50;0.30;;;0.20;;
57331;SDS011;43164;50.908;18.092;2023-08-06T11:46:21;2.80;;;0.20;;
57331;SDS011;43164;50.908;18.092;2023-08-06T11:49:04;2.20;;;0.20;;
57331;SDS011;43164;50.908;18.092;2023-08-06T11:51:38;1.00;;;0.30;;
57331;SDS011;43164;50.908;18.092;2023-08-06T11:54:13;1.20;;;0.30;;
57331;SDS011;43164;50.908;18.092;2023-08-06T11:56:43;1.00;;;0.30;;
57331;SDS011;43164;50.908;18.092;2023-08-06T11:59:23;0.90;;;0.30;;
57331;SDS011;43164;50.908;18.092;2023-08-06T12:02:08;0.40;;;0.30;;
57331;SDS011;43164;50.908;18.092;2023-08-06T12:08:26;1.00;;;0.40;;
57331;SDS011;43164;50.908;18.092;2023-08-06T12:10:57;3.10;;;0.40;;
57331;SDS011;43164;50.908;18.092;2023-08-06T12:13:45;1.20;;;0.30;;
57331;SDS011;43164;50.908;18.092;2023-08-06T12:16:27;0.80;;;0.30;;
57331;SDS011;43164;50.908;18.092;2023-08-06T12:19:16;1.60;;;0.40;;
57331;SDS011;43164;50.908;18.092;2023-08-06T12:21:47;0.60;;;0.40;;
57331;SDS011;43164;50.908;18.092;2023-08-06T12:24:20;3.40;;;0.30;;
57331;SDS011;43164;50.908;18.092;2023-08-06T12:26:53;1.40;;;0.40;;
57331;SDS011;43164;50.908;18.092;2023-08-06T12:29:25;0.70;;;0.40;;
57331;SDS011;43164;50.908;18.092;2023-08-06T12:32:03;2.20;;;0.30;;
57331;SDS011;43164;50.908;18.092;2023-08-06T12:34:43;1.50;;;0.40;;
57331;SDS011;43164;50.908;18.092;2023-08-06T12:37:27;0.90;;;0.30;;
57331;SDS011;43164;50.908;18.092;2023-08-06T12:40:16;0.50;;;0.20;;
57331;SDS011;43164;50.908;18.092;2023-08-06T12:42:47;0.70;;;0.30;;
57331;SDS011;43164;50.908;18.092;2023-08-06T12:45:27;0.70;;;0.20;;
57331;SDS011;43164;50.908;18.092;2023-08-06T12:47:59;0.70;;;0.20;;
57331;SDS011;43164;50.908;18.092;2023-08-06T12:57:10;0.30;;;0.10;;
57331;SDS011;43164;50.908;18.092;2023-08-06T12:59:43;0.50;;;0.20;;
57331;SDS011;43164;50.908;18.092;2023-08-06T13:02:27;0.40;;;0.20;;
57331;SDS011;43164;50.908;18.092;2023-08-06T13:04:57;0.30;;;0.10;;
57331;SDS011;43164;50.908;18.092;2023-08-06T13:07:40;0.20;;;0.10;;
57331;SDS011;43164;50.908;18.092;2023-08-06T13:10:51;0.20;;;0.10;;
57331;SDS011;43164;50.908;18.092;2023-08-06T13:20:33;0.20;;;0.10;;
57331;SDS011;43164;50.908;18.092;2023-08-06T13:26:50;0.20;;;0.10;;
57331;SDS011;43164;50.908;18.092;2023-08-06T13:32:04;0.20;;;0.10;;
57331;SDS011;43164;50.908;18.092;2023-08-06T13:34:39;0.20;;;0.10;;
57331;SDS011;43164;50.908;18.092;2023-08-06T13:39:57;0.30;;;0.10;;
57331;SDS011;43164;50.908;18.092;2023-08-06T13:42:47;0.20;;;0.10;;
57331;SDS011;43164;50.908;18.092;2023-08-06T13:45:17;0.10;;;0.10;;
57331;SDS011;43164;50.908;18.092;2023-08-06T13:47:51;0.20;;;0.10;;
57331;SDS011;43164;50.908;18.092;2023-08-06T13:50:23;0.10;;;0.10;;
57331;SDS011;43164;50.908;18.092;2023-08-06T13:52:59;0.10;;;0.10;;
57331;SDS011;43164;50.908;18.092;2023-08-06T13:55:28;0.10;;;0.10;;
57331;SDS011;43164;50.908;18.092;2023-08-06T13:58:01;1.50;;;0.00;;
57331;SDS011;43164;50.908;18.092;2023-08-06T14:00:29;0.30;;;0.10;;
57331;SDS011;43164;50.908;18.092;2023-08-06T14:02:59;0.10;;;0.10;;
57331;SDS011;43164;50.908;18.092;2023-08-06T14:05:34;0.30;;;0.20;;
57331;SDS011;43164;50.908;18.092;2023-08-06T14:08:03;0.10;;;0.00;;
57331;SDS011;43164;50.908;18.092;2023-08-06T14:10:34;0.40;;;0.20;;
57331;SDS011;43164;50.908;18.092;2023-08-06T14:13:03;0.20;;;0.10;;
57331;SDS011;43164;50.908;18.092;2023-08-06T14:15:32;0.30;;;0.10;;
57331;SDS011;43164;50.908;18.092;2023-08-06T14:18:25;1.30;;;0.10;;
57331;SDS011;43164;50.908;18.092;2023-08-06T14:20:55;1.70;;;0.10;;
57331;SDS011;43164;50.908;18.092;2023-08-06T14:23:30;0.20;;;0.10;;
57331;SDS011;43164;50.908;18.092;2023-08-06T14:26:13;0.30;;;0.10;;
57331;SDS011;43164;50.908;18.092;2023-08-06T14:28:42;0.20;;;0.10;;
57331;SDS011;43164;50.908;18.092;2023-08-06T14:31:25;0.50;;;0.20;;
57331;SDS011;43164;50.908;18.092;2023-08-06T14:34:11;0.90;;;0.10;;
57331;SDS011;43164;50.908;18.092;2023-08-06T14:36:52;3.20;;;0.20;;
57331;SDS011;43164;50.908;18.092;2023-08-06T14:39:39;0.30;;;0.10;;
57331;SDS011;43164;50.908;18.092;2023-08-06T14:42:07;0.60;;;0.10;;
57331;SDS011;43164;50.908;18.092;2023-08-06T14:44:37;0.50;;;0.20;;
57331;SDS011;43164;50.908;18.092;2023-08-06T14:47:06;1.30;;;0.20;;
57331;SDS011;43164;50.908;18.092;2023-08-06T14:49:37;0.40;;;0.10;;
57331;SDS011;43164;50.908;18.092;2023-08-06T14:52:24;0.70;;;0.20;;
57331;SDS011;43164;50.908;18.092;2023-08-06T14:54:55;2.00;;;0.20;;
57331;SDS011;43164;50.908;18.092;2023-08-06T14:57:28;1.30;;;0.20;;
57331;SDS011;43164;50.908;18.092;2023-08-06T15:00:01;1.00;;;0.30;;
57331;SDS011;43164;50.908;18.092;2023-08-06T15:02:32;0.60;;;0.30;;
57331;SDS011;43164;50.908;18.092;2023-08-06T15:05:04;0.50;;;0.20;;
57331;SDS011;43164;50.908;18.092;2023-08-06T15:07:38;1.40;;;0.30;;
57331;SDS011;43164;50.908;18.092;2023-08-06T15:10:13;1.80;;;0.30;;
57331;SDS011;43164;50.908;18.092;2023-08-06T15:12:42;0.70;;;0.30;;
57331;SDS011;43164;50.908;18.092;2023-08-06T15:15:10;0.50;;;0.20;;
57331;SDS011;43164;50.908;18.092;2023-08-06T15:17:40;1.50;;;0.20;;
57331;SDS011;43164;50.908;18.092;2023-08-06T15:20:12;1.20;;;0.30;;
57331;SDS011;43164;50.908;18.092;2023-08-06T15:22:44;0.60;;;0.30;;
57331;SDS011;43164;50.908;18.092;2023-08-06T15:25:23;0.70;;;0.30;;
57331;SDS011;43164;50.908;18.092;2023-08-06T15:28:04;2.20;;;0.30;;
57331;SDS011;43164;50.908;18.092;2023-08-06T15:30:35;0.70;;;0.30;;
57331;SDS011;43164;50.908;18.092;2023-08-06T15:33:12;0.70;;;0.20;;
57331;SDS011;43164;50.908;18.092;2023-08-06T15:35:42;0.80;;;0.20;;
57331;SDS011;43164;50.908;18.092;2023-08-06T15:38:27;0.50;;;0.20;;
57331;SDS011;43164;50.908;18.092;2023-08-06T15:40:54;1.70;;;0.20;;
57331;SDS011;43164;50.908;18.092;2023-08-06T15:43:34;0.30;;;0.20;;
57331;SDS011;43164;50.908;18.092;2023-08-06T15:46:04;2.60;;;0.30;;
57331;SDS011;43164;50.908;18.092;2023-08-06T15:48:33;1.00;;;0.30;;
57331;SDS011;43164;50.908;18.092;2023-08-06T15:51:01;2.10;;;0.20;;
57331;SDS011;43164;50.908;18.092;2023-08-06T15:53:34;0.30;;;0.10;;
57331;SDS011;43164;50.908;18.092;2023-08-06T15:56:05;2.20;;;0.30;;
57331;SDS011;43164;50.908;18.092;2023-08-06T15:58:40;1.30;;;0.30;;
57331;SDS011;43164;50.908;18.092;2023-08-06T16:01:09;1.00;;;0.20;;